sensor_id;sensor_type;location;lat;lon;timestamp;P1;durP1;ratioP1;P2;durP2;ratioP2
59976;SDS011;45837;51.076;3.578;2022-11-11T00:02:17;3.53;;;1.77;;
59976;SDS011;45837;51.076;3.578;2022-11-11T00:05:02;3.35;;;1.58;;
59976;SDS011;45837;51.076;3.578;2022-11-11T00:07:46;3.60;;;1.80;;
59976;SDS011;45837;51.076;3.578;2022-11-11T00:10:31;2.85;;;1.90;;
59976;SDS011;45837;51.076;3.578;2022-11-11T00:16:04;3.30;;;1.63;;
59976;SDS011;45837;51.076;3.578;2022-11-11T00:18:59;4.43;;;1.92;;
59976;SDS011;45837;51.076;3.578;2022-11-11T00:22:02;2.53;;;1.35;;
59976;SDS011;45837;51.076;3.578;2022-11-11T00:25:05;4.57;;;1.50;;
59976;SDS011;45837;51.076;3.578;2022-11-11T00:27:50;3.65;;;1.80;;
59976;SDS011;45837;51.076;3.578;2022-11-11T00:30:35;3.30;;;1.67;;
59976;SDS011;45837;51.076;3.578;2022-11-11T00:36:04;3.88;;;2.08;;
59976;SDS011;45837;51.076;3.578;2022-11-11T00:38:50;3.45;;;1.63;;
59976;SDS011;45837;51.076;3.578;2022-11-11T00:41:35;2.92;;;1.60;;
59976;SDS011;45837;51.076;3.578;2022-11-11T00:47:04;4.15;;;1.63;;
59976;SDS011;45837;51.076;3.578;2022-11-11T00:50:12;3.10;;;1.73;;
59976;SDS011;45837;51.076;3.578;2022-11-11T00:53:21;3.50;;;1.80;;
59976;SDS011;45837;51.076;3.578;2022-11-11T00:56:08;3.53;;;1.60;;
59976;SDS011;45837;51.076;3.578;2022-11-11T00:58:53;2.92;;;1.80;;
59976;SDS011;45837;51.076;3.578;2022-11-11T01:01:37;3.58;;;1.80;;
59976;SDS011;45837;51.076;3.578;2022-11-11T01:07:06;3.45;;;1.77;;
59976;SDS011;45837;51.076;3.578;2022-11-11T01:09:51;2.90;;;1.70;;
59976;SDS011;45837;51.076;3.578;2022-11-11T01:12:36;3.33;;;1.75;;
59976;SDS011;45837;51.076;3.578;2022-11-11T01:18:04;3.05;;;1.88;;
59976;SDS011;45837;51.076;3.578;2022-11-11T01:20:56;3.80;;;1.70;;
59976;SDS011;45837;51.076;3.578;2022-11-11T01:23:52;3.30;;;1.55;;
59976;SDS011;45837;51.076;3.578;2022-11-11T01:26:36;2.05;;;1.33;;
59976;SDS011;45837;51.076;3.578;2022-11-11T01:29:21;2.42;;;1.42;;
59976;SDS011;45837;51.076;3.578;2022-11-11T01:32:05;2.70;;;1.70;;
59976;SDS011;45837;51.076;3.578;2022-11-11T01:34:50;3.45;;;1.70;;
59976;SDS011;45837;51.076;3.578;2022-11-11T01:37:35;3.22;;;1.50;;
59976;SDS011;45837;51.076;3.578;2022-11-11T01:48:42;4.32;;;1.75;;
59976;SDS011;45837;51.076;3.578;2022-11-11T01:51:52;2.95;;;1.77;;
59976;SDS011;45837;51.076;3.578;2022-11-11T01:57:35;2.97;;;1.48;;
59976;SDS011;45837;51.076;3.578;2022-11-11T02:00:27;2.90;;;1.58;;
59976;SDS011;45837;51.076;3.578;2022-11-11T02:05:57;2.93;;;1.60;;
59976;SDS011;45837;51.076;3.578;2022-11-11T02:08:41;3.33;;;1.90;;
59976;SDS011;45837;51.076;3.578;2022-11-11T02:11:27;3.03;;;1.73;;
59976;SDS011;45837;51.076;3.578;2022-11-11T02:14:33;3.78;;;1.95;;
59976;SDS011;45837;51.076;3.578;2022-11-11T02:17:34;3.00;;;1.75;;
59976;SDS011;45837;51.076;3.578;2022-11-11T02:20:20;3.15;;;1.85;;
59976;SDS011;45837;51.076;3.578;2022-11-11T02:25:51;4.20;;;2.00;;
59976;SDS011;45837;51.076;3.578;2022-11-11T02:28:38;2.53;;;1.67;;
59976;SDS011;45837;51.076;3.578;2022-11-11T02:31:28;2.72;;;1.52;;
59976;SDS011;45837;51.076;3.578;2022-11-11T02:34:14;2.90;;;1.80;;
59976;SDS011;45837;51.076;3.578;2022-11-11T02:36:59;3.05;;;1.80;;
59976;SDS011;45837;51.076;3.578;2022-11-11T02:39:46;3.50;;;1.95;;
59976;SDS011;45837;51.076;3.578;2022-11-11T02:42:33;2.13;;;1.55;;
59976;SDS011;45837;51.076;3.578;2022-11-11T02:45:19;3.03;;;1.67;;
59976;SDS011;45837;51.076;3.578;2022-11-11T02:48:03;4.35;;;2.00;;
59976;SDS011;45837;51.076;3.578;2022-11-11T02:50:48;4.35;;;1.90;;
59976;SDS011;45837;51.076;3.578;2022-11-11T02:53:33;2.47;;;1.77;;
59976;SDS011;45837;51.076;3.578;2022-11-11T02:59:22;2.50;;;1.67;;
59976;SDS011;45837;51.076;3.578;2022-11-11T03:02:06;3.95;;;2.38;;
59976;SDS011;45837;51.076;3.578;2022-11-11T03:04:51;2.92;;;1.73;;
59976;SDS011;45837;51.076;3.578;2022-11-11T03:07:37;3.88;;;2.03;;
59976;SDS011;45837;51.076;3.578;2022-11-11T03:13:06;2.22;;;1.55;;
59976;SDS011;45837;51.076;3.578;2022-11-11T03:15:50;2.63;;;1.75;;
59976;SDS011;45837;51.076;3.578;2022-11-11T03:18:35;4.28;;;1.52;;
59976;SDS011;45837;51.076;3.578;2022-11-11T03:21:20;2.83;;;2.03;;
59976;SDS011;45837;51.076;3.578;2022-11-11T03:24:04;3.65;;;1.70;;
59976;SDS011;45837;51.076;3.578;2022-11-11T03:26:49;3.63;;;2.28;;
59976;SDS011;45837;51.076;3.578;2022-11-11T03:29:33;2.60;;;1.70;;
59976;SDS011;45837;51.076;3.578;2022-11-11T03:32:18;2.88;;;1.70;;
59976;SDS011;45837;51.076;3.578;2022-11-11T03:35:02;2.63;;;1.50;;
59976;SDS011;45837;51.076;3.578;2022-11-11T03:40:51;3.17;;;1.60;;
59976;SDS011;45837;51.076;3.578;2022-11-11T03:43:36;2.90;;;1.88;;
59976;SDS011;45837;51.076;3.578;2022-11-11T03:49:05;3.88;;;2.00;;
59976;SDS011;45837;51.076;3.578;2022-11-11T03:51:49;3.33;;;1.75;;
59976;SDS011;45837;51.076;3.578;2022-11-11T03:54:34;2.70;;;1.52;;
59976;SDS011;45837;51.076;3.578;2022-11-11T03:57:18;4.57;;;2.07;;
59976;SDS011;45837;51.076;3.578;2022-11-11T04:00:15;4.30;;;2.47;;
59976;SDS011;45837;51.076;3.578;2022-11-11T04:03:05;2.85;;;1.60;;
59976;SDS011;45837;51.076;3.578;2022-11-11T04:06:09;2.97;;;1.85;;
59976;SDS011;45837;51.076;3.578;2022-11-11T04:09:12;3.35;;;1.90;;
59976;SDS011;45837;51.076;3.578;2022-11-11T04:12:15;2.80;;;1.55;;
59976;SDS011;45837;51.076;3.578;2022-11-11T04:15:00;3.00;;;1.83;;
59976;SDS011;45837;51.076;3.578;2022-11-11T04:18:03;3.55;;;1.90;;
59976;SDS011;45837;51.076;3.578;2022-11-11T04:20:47;3.42;;;1.85;;
59976;SDS011;45837;51.076;3.578;2022-11-11T04:23:51;2.55;;;1.60;;
59976;SDS011;45837;51.076;3.578;2022-11-11T04:26:35;2.80;;;1.90;;
59976;SDS011;45837;51.076;3.578;2022-11-11T04:32:17;2.85;;;1.88;;
59976;SDS011;45837;51.076;3.578;2022-11-11T04:35:18;3.47;;;1.92;;
59976;SDS011;45837;51.076;3.578;2022-11-11T04:38:03;2.85;;;2.03;;
59976;SDS011;45837;51.076;3.578;2022-11-11T04:41:25;4.22;;;1.60;;
59976;SDS011;45837;51.076;3.578;2022-11-11T04:44:10;3.15;;;1.65;;
59976;SDS011;45837;51.076;3.578;2022-11-11T04:47:12;4.07;;;2.20;;
59976;SDS011;45837;51.076;3.578;2022-11-11T04:49:57;2.45;;;1.73;;
59976;SDS011;45837;51.076;3.578;2022-11-11T04:55:26;2.85;;;1.50;;
59976;SDS011;45837;51.076;3.578;2022-11-11T04:58:31;2.47;;;1.58;;
59976;SDS011;45837;51.076;3.578;2022-11-11T05:01:16;2.75;;;1.60;;
59976;SDS011;45837;51.076;3.578;2022-11-11T05:04:20;3.08;;;2.00;;
59976;SDS011;45837;51.076;3.578;2022-11-11T05:10:08;2.97;;;1.83;;
59976;SDS011;45837;51.076;3.578;2022-11-11T05:12:53;3.20;;;1.90;;
59976;SDS011;45837;51.076;3.578;2022-11-11T05:15:57;2.65;;;1.80;;
59976;SDS011;45837;51.076;3.578;2022-11-11T05:19:00;3.63;;;1.83;;
59976;SDS011;45837;51.076;3.578;2022-11-11T05:22:15;2.33;;;1.55;;
59976;SDS011;45837;51.076;3.578;2022-11-11T05:25:04;3.20;;;1.92;;
59976;SDS011;45837;51.076;3.578;2022-11-11T05:28:08;3.33;;;2.00;;
59976;SDS011;45837;51.076;3.578;2022-11-11T05:30:53;2.92;;;1.65;;
59976;SDS011;45837;51.076;3.578;2022-11-11T05:33:37;3.65;;;1.98;;
59976;SDS011;45837;51.076;3.578;2022-11-11T05:36:22;2.75;;;1.80;;
59976;SDS011;45837;51.076;3.578;2022-11-11T05:39:06;2.78;;;1.85;;
59976;SDS011;45837;51.076;3.578;2022-11-11T05:41:51;2.58;;;1.80;;
59976;SDS011;45837;51.076;3.578;2022-11-11T05:44:36;2.88;;;1.98;;
59976;SDS011;45837;51.076;3.578;2022-11-11T05:47:20;2.67;;;1.80;;
59976;SDS011;45837;51.076;3.578;2022-11-11T05:50:05;2.88;;;1.63;;
59976;SDS011;45837;51.076;3.578;2022-11-11T05:52:50;2.85;;;1.73;;
59976;SDS011;45837;51.076;3.578;2022-11-11T05:55:34;2.83;;;1.60;;
59976;SDS011;45837;51.076;3.578;2022-11-11T06:01:03;2.70;;;1.73;;
59976;SDS011;45837;51.076;3.578;2022-11-11T06:06:34;3.80;;;1.83;;
59976;SDS011;45837;51.076;3.578;2022-11-11T06:09:19;3.22;;;1.73;;
59976;SDS011;45837;51.076;3.578;2022-11-11T06:12:03;3.92;;;1.80;;
59976;SDS011;45837;51.076;3.578;2022-11-11T06:14:48;2.85;;;1.63;;
59976;SDS011;45837;51.076;3.578;2022-11-11T06:17:33;2.78;;;1.67;;
59976;SDS011;45837;51.076;3.578;2022-11-11T06:20:17;2.58;;;1.77;;
59976;SDS011;45837;51.076;3.578;2022-11-11T06:23:02;2.45;;;1.73;;
59976;SDS011;45837;51.076;3.578;2022-11-11T06:25:47;2.50;;;1.60;;
59976;SDS011;45837;51.076;3.578;2022-11-11T06:28:51;3.38;;;2.10;;
59976;SDS011;45837;51.076;3.578;2022-11-11T06:31:39;2.65;;;1.63;;
59976;SDS011;45837;51.076;3.578;2022-11-11T06:34:23;2.60;;;2.00;;
59976;SDS011;45837;51.076;3.578;2022-11-11T06:37:08;3.38;;;1.90;;
59976;SDS011;45837;51.076;3.578;2022-11-11T06:39:52;2.58;;;1.70;;
59976;SDS011;45837;51.076;3.578;2022-11-11T06:42:37;2.67;;;1.60;;
59976;SDS011;45837;51.076;3.578;2022-11-11T06:48:07;3.47;;;1.80;;
59976;SDS011;45837;51.076;3.578;2022-11-11T06:50:52;2.80;;;1.70;;
59976;SDS011;45837;51.076;3.578;2022-11-11T06:53:37;3.35;;;1.75;;
59976;SDS011;45837;51.076;3.578;2022-11-11T06:56:21;2.63;;;1.90;;
59976;SDS011;45837;51.076;3.578;2022-11-11T06:59:05;5.75;;;1.95;;
59976;SDS011;45837;51.076;3.578;2022-11-11T07:01:50;2.95;;;1.80;;
59976;SDS011;45837;51.076;3.578;2022-11-11T07:04:35;5.72;;;2.15;;
59976;SDS011;45837;51.076;3.578;2022-11-11T07:07:19;3.95;;;1.92;;
59976;SDS011;45837;51.076;3.578;2022-11-11T07:10:04;4.25;;;2.00;;
59976;SDS011;45837;51.076;3.578;2022-11-11T07:12:50;7.15;;;1.95;;
59976;SDS011;45837;51.076;3.578;2022-11-11T07:15:35;3.78;;;1.80;;
59976;SDS011;45837;51.076;3.578;2022-11-11T07:18:19;8.50;;;2.13;;
59976;SDS011;45837;51.076;3.578;2022-11-11T07:21:04;4.50;;;1.85;;
59976;SDS011;45837;51.076;3.578;2022-11-11T07:23:49;3.97;;;1.80;;
59976;SDS011;45837;51.076;3.578;2022-11-11T07:26:33;8.73;;;2.20;;
59976;SDS011;45837;51.076;3.578;2022-11-11T07:32:02;4.00;;;1.98;;
59976;SDS011;45837;51.076;3.578;2022-11-11T07:34:47;4.32;;;2.00;;
59976;SDS011;45837;51.076;3.578;2022-11-11T07:37:32;5.60;;;1.50;;
59976;SDS011;45837;51.076;3.578;2022-11-11T07:40:18;6.50;;;1.40;;
59976;SDS011;45837;51.076;3.578;2022-11-11T07:43:04;3.17;;;1.80;;
59976;SDS011;45837;51.076;3.578;2022-11-11T07:45:48;9.40;;;1.65;;
59976;SDS011;45837;51.076;3.578;2022-11-11T07:51:17;13.15;;;1.80;;
59976;SDS011;45837;51.076;3.578;2022-11-11T07:54:02;3.55;;;1.38;;
59976;SDS011;45837;51.076;3.578;2022-11-11T07:56:46;6.27;;;1.43;;
59976;SDS011;45837;51.076;3.578;2022-11-11T07:59:31;8.98;;;1.73;;
59976;SDS011;45837;51.076;3.578;2022-11-11T08:02:15;9.60;;;1.90;;
59976;SDS011;45837;51.076;3.578;2022-11-11T08:07:44;11.15;;;1.90;;
59976;SDS011;45837;51.076;3.578;2022-11-11T08:10:29;12.95;;;1.88;;
59976;SDS011;45837;51.076;3.578;2022-11-11T08:16:17;21.27;;;3.13;;
59976;SDS011;45837;51.076;3.578;2022-11-11T08:19:01;19.77;;;3.80;;
59976;SDS011;45837;51.076;3.578;2022-11-11T08:21:46;19.70;;;2.63;;
59976;SDS011;45837;51.076;3.578;2022-11-11T08:24:30;19.42;;;2.70;;
59976;SDS011;45837;51.076;3.578;2022-11-11T08:27:15;19.40;;;2.67;;
59976;SDS011;45837;51.076;3.578;2022-11-11T08:30:00;13.73;;;2.40;;
59976;SDS011;45837;51.076;3.578;2022-11-11T08:32:45;14.73;;;2.42;;
59976;SDS011;45837;51.076;3.578;2022-11-11T08:35:29;18.35;;;2.47;;
59976;SDS011;45837;51.076;3.578;2022-11-11T08:38:14;16.25;;;3.03;;
59976;SDS011;45837;51.076;3.578;2022-11-11T08:41:00;16.85;;;3.28;;
59976;SDS011;45837;51.076;3.578;2022-11-11T08:43:44;12.45;;;2.72;;
59976;SDS011;45837;51.076;3.578;2022-11-11T08:46:29;11.10;;;2.53;;
59976;SDS011;45837;51.076;3.578;2022-11-11T08:49:14;17.20;;;2.40;;
59976;SDS011;45837;51.076;3.578;2022-11-11T08:51:58;13.25;;;2.42;;
59976;SDS011;45837;51.076;3.578;2022-11-11T08:54:43;19.85;;;2.45;;
59976;SDS011;45837;51.076;3.578;2022-11-11T08:57:28;10.48;;;2.40;;
59976;SDS011;45837;51.076;3.578;2022-11-11T09:00:12;19.40;;;2.92;;
59976;SDS011;45837;51.076;3.578;2022-11-11T09:03:01;9.80;;;2.35;;
59976;SDS011;45837;51.076;3.578;2022-11-11T09:05:46;15.02;;;2.75;;
59976;SDS011;45837;51.076;3.578;2022-11-11T09:08:31;20.83;;;3.35;;
59976;SDS011;45837;51.076;3.578;2022-11-11T09:11:15;23.10;;;3.30;;
59976;SDS011;45837;51.076;3.578;2022-11-11T09:14:00;17.05;;;2.40;;
59976;SDS011;45837;51.076;3.578;2022-11-11T09:16:45;9.10;;;2.15;;
59976;SDS011;45837;51.076;3.578;2022-11-11T09:19:30;14.27;;;3.42;;
59976;SDS011;45837;51.076;3.578;2022-11-11T09:22:14;13.27;;;3.47;;
59976;SDS011;45837;51.076;3.578;2022-11-11T09:24:59;14.77;;;2.78;;
59976;SDS011;45837;51.076;3.578;2022-11-11T09:27:43;10.23;;;2.65;;
59976;SDS011;45837;51.076;3.578;2022-11-11T09:30:37;12.40;;;2.28;;
59976;SDS011;45837;51.076;3.578;2022-11-11T09:33:22;20.75;;;2.78;;
59976;SDS011;45837;51.076;3.578;2022-11-11T09:36:07;13.77;;;3.08;;
59976;SDS011;45837;51.076;3.578;2022-11-11T09:47:29;24.70;;;3.15;;
59976;SDS011;45837;51.076;3.578;2022-11-11T09:50:23;15.57;;;3.28;;
59976;SDS011;45837;51.076;3.578;2022-11-11T09:53:14;25.40;;;3.10;;
59976;SDS011;45837;51.076;3.578;2022-11-11T09:56:14;12.43;;;3.65;;
59976;SDS011;45837;51.076;3.578;2022-11-11T09:59:19;21.58;;;3.05;;
59976;SDS011;45837;51.076;3.578;2022-11-11T10:02:19;17.98;;;3.58;;
59976;SDS011;45837;51.076;3.578;2022-11-11T10:05:19;10.70;;;3.72;;
59976;SDS011;45837;51.076;3.578;2022-11-11T10:08:14;17.88;;;3.70;;
59976;SDS011;45837;51.076;3.578;2022-11-11T10:11:04;10.63;;;3.45;;
59976;SDS011;45837;51.076;3.578;2022-11-11T10:13:59;15.73;;;2.83;;
59976;SDS011;45837;51.076;3.578;2022-11-11T10:16:55;12.48;;;3.28;;
59976;SDS011;45837;51.076;3.578;2022-11-11T10:19:52;13.50;;;3.58;;
59976;SDS011;45837;51.076;3.578;2022-11-11T10:22:58;12.40;;;3.47;;
59976;SDS011;45837;51.076;3.578;2022-11-11T10:25:53;13.40;;;3.83;;
59976;SDS011;45837;51.076;3.578;2022-11-11T10:28:39;7.93;;;3.78;;
59976;SDS011;45837;51.076;3.578;2022-11-11T10:31:28;12.38;;;3.60;;
59976;SDS011;45837;51.076;3.578;2022-11-11T10:34:14;14.18;;;3.10;;
59976;SDS011;45837;51.076;3.578;2022-11-11T10:37:02;8.32;;;3.35;;
59976;SDS011;45837;51.076;3.578;2022-11-11T10:42:43;15.38;;;3.85;;
59976;SDS011;45837;51.076;3.578;2022-11-11T10:45:38;17.73;;;3.58;;
59976;SDS011;45837;51.076;3.578;2022-11-11T10:48:47;17.70;;;4.07;;
59976;SDS011;45837;51.076;3.578;2022-11-11T10:51:42;13.45;;;4.13;;
59976;SDS011;45837;51.076;3.578;2022-11-11T10:54:40;20.48;;;5.00;;
59976;SDS011;45837;51.076;3.578;2022-11-11T10:57:51;17.05;;;5.55;;
59976;SDS011;45837;51.076;3.578;2022-11-11T11:00:40;17.95;;;4.25;;
59976;SDS011;45837;51.076;3.578;2022-11-11T11:06:46;12.77;;;4.57;;
59976;SDS011;45837;51.076;3.578;2022-11-11T11:12:52;15.43;;;4.82;;
59976;SDS011;45837;51.076;3.578;2022-11-11T11:15:50;15.70;;;4.80;;
59976;SDS011;45837;51.076;3.578;2022-11-11T11:22:06;8.82;;;4.43;;
59976;SDS011;45837;51.076;3.578;2022-11-11T11:27:51;19.10;;;4.80;;
59976;SDS011;45837;51.076;3.578;2022-11-11T11:30:56;19.48;;;4.30;;
59976;SDS011;45837;51.076;3.578;2022-11-11T11:33:48;15.07;;;4.50;;
59976;SDS011;45837;51.076;3.578;2022-11-11T11:36:35;14.32;;;4.47;;
59976;SDS011;45837;51.076;3.578;2022-11-11T11:39:30;15.80;;;4.05;;
59976;SDS011;45837;51.076;3.578;2022-11-11T11:45:20;11.65;;;4.18;;
59976;SDS011;45837;51.076;3.578;2022-11-11T11:48:26;13.27;;;5.32;;
59976;SDS011;45837;51.076;3.578;2022-11-11T11:51:38;17.05;;;4.85;;
59976;SDS011;45837;51.076;3.578;2022-11-11T11:54:45;15.88;;;5.00;;
59976;SDS011;45837;51.076;3.578;2022-11-11T12:01:16;14.85;;;4.55;;
59976;SDS011;45837;51.076;3.578;2022-11-11T12:07:13;16.67;;;5.78;;
59976;SDS011;45837;51.076;3.578;2022-11-11T12:10:22;32.42;;;5.85;;
59976;SDS011;45837;51.076;3.578;2022-11-11T12:13:23;9.52;;;5.63;;
59976;SDS011;45837;51.076;3.578;2022-11-11T12:22:28;7.40;;;4.40;;
59976;SDS011;45837;51.076;3.578;2022-11-11T12:34:52;8.15;;;4.13;;
59976;SDS011;45837;51.076;3.578;2022-11-11T12:47:11;8.93;;;3.97;;
59976;SDS011;45837;51.076;3.578;2022-11-11T12:50:13;14.10;;;3.83;;
59976;SDS011;45837;51.076;3.578;2022-11-11T12:59:23;6.35;;;3.30;;
59976;SDS011;45837;51.076;3.578;2022-11-11T13:08:41;10.25;;;3.72;;
59976;SDS011;45837;51.076;3.578;2022-11-11T13:17:39;6.90;;;3.88;;
59976;SDS011;45837;51.076;3.578;2022-11-11T13:23:27;5.50;;;3.25;;
59976;SDS011;45837;51.076;3.578;2022-11-11T13:32:33;6.57;;;3.13;;
59976;SDS011;45837;51.076;3.578;2022-11-11T13:35:41;5.43;;;3.28;;
59976;SDS011;45837;51.076;3.578;2022-11-11T13:38:44;4.63;;;2.78;;
59976;SDS011;45837;51.076;3.578;2022-11-11T13:44:35;7.45;;;3.10;;
59976;SDS011;45837;51.076;3.578;2022-11-11T13:47:33;7.25;;;2.88;;
59976;SDS011;45837;51.076;3.578;2022-11-11T13:50:22;6.68;;;2.90;;
59976;SDS011;45837;51.076;3.578;2022-11-11T13:53:30;5.07;;;2.80;;
59976;SDS011;45837;51.076;3.578;2022-11-11T13:56:26;7.93;;;3.10;;
59976;SDS011;45837;51.076;3.578;2022-11-11T13:59:28;5.25;;;2.50;;
59976;SDS011;45837;51.076;3.578;2022-11-11T14:07:50;4.22;;;2.83;;
59976;SDS011;45837;51.076;3.578;2022-11-11T14:13:35;5.25;;;2.33;;
59976;SDS011;45837;51.076;3.578;2022-11-11T14:22:03;5.28;;;2.60;;
59976;SDS011;45837;51.076;3.578;2022-11-11T14:25:21;4.43;;;2.72;;
59976;SDS011;45837;51.076;3.578;2022-11-11T14:34:21;4.82;;;2.83;;
59976;SDS011;45837;51.076;3.578;2022-11-11T14:40:26;5.63;;;2.83;;
59976;SDS011;45837;51.076;3.578;2022-11-11T14:46:15;2.95;;;2.13;;
59976;SDS011;45837;51.076;3.578;2022-11-11T14:49:00;3.85;;;2.67;;
59976;SDS011;45837;51.076;3.578;2022-11-11T14:51:48;4.38;;;2.50;;
59976;SDS011;45837;51.076;3.578;2022-11-11T14:57:47;3.97;;;2.42;;
59976;SDS011;45837;51.076;3.578;2022-11-11T15:03:54;4.97;;;2.45;;
59976;SDS011;45837;51.076;3.578;2022-11-11T15:10:14;4.93;;;2.50;;
59976;SDS011;45837;51.076;3.578;2022-11-11T15:16:08;3.55;;;2.40;;
59976;SDS011;45837;51.076;3.578;2022-11-11T15:22:28;4.60;;;2.60;;
59976;SDS011;45837;51.076;3.578;2022-11-11T15:25:47;4.53;;;2.30;;
59976;SDS011;45837;51.076;3.578;2022-11-11T15:31:49;4.65;;;2.47;;
59976;SDS011;45837;51.076;3.578;2022-11-11T15:34:49;4.25;;;2.72;;
59976;SDS011;45837;51.076;3.578;2022-11-11T15:37:56;4.60;;;2.58;;
59976;SDS011;45837;51.076;3.578;2022-11-11T15:40:53;3.75;;;2.28;;
59976;SDS011;45837;51.076;3.578;2022-11-11T15:43:41;4.78;;;2.75;;
59976;SDS011;45837;51.076;3.578;2022-11-11T15:46:29;5.15;;;3.00;;
59976;SDS011;45837;51.076;3.578;2022-11-11T15:55:17;4.13;;;2.88;;
59976;SDS011;45837;51.076;3.578;2022-11-11T15:58:25;4.15;;;2.42;;
59976;SDS011;45837;51.076;3.578;2022-11-11T16:01:11;7.72;;;3.17;;
59976;SDS011;45837;51.076;3.578;2022-11-11T16:03:55;4.95;;;2.67;;
59976;SDS011;45837;51.076;3.578;2022-11-11T16:06:41;4.72;;;2.60;;
59976;SDS011;45837;51.076;3.578;2022-11-11T16:09:26;4.20;;;2.80;;
59976;SDS011;45837;51.076;3.578;2022-11-11T16:12:16;4.80;;;2.90;;
59976;SDS011;45837;51.076;3.578;2022-11-11T16:15:07;4.43;;;2.67;;
59976;SDS011;45837;51.076;3.578;2022-11-11T16:17:53;5.45;;;2.90;;
59976;SDS011;45837;51.076;3.578;2022-11-11T16:20:45;4.43;;;2.78;;
59976;SDS011;45837;51.076;3.578;2022-11-11T16:23:33;5.72;;;3.05;;
59976;SDS011;45837;51.076;3.578;2022-11-11T16:26:20;6.05;;;3.17;;
59976;SDS011;45837;51.076;3.578;2022-11-11T16:29:08;4.57;;;3.03;;
59976;SDS011;45837;51.076;3.578;2022-11-11T16:31:57;4.78;;;3.00;;
59976;SDS011;45837;51.076;3.578;2022-11-11T16:37:28;5.63;;;3.47;;
59976;SDS011;45837;51.076;3.578;2022-11-11T16:43:18;4.60;;;3.28;;
59976;SDS011;45837;51.076;3.578;2022-11-11T16:46:15;5.30;;;3.40;;
59976;SDS011;45837;51.076;3.578;2022-11-11T16:49:38;6.45;;;4.15;;
59976;SDS011;45837;51.076;3.578;2022-11-11T16:52:24;7.78;;;3.78;;
59976;SDS011;45837;51.076;3.578;2022-11-11T16:55:22;5.28;;;3.72;;
59976;SDS011;45837;51.076;3.578;2022-11-11T16:58:39;8.18;;;3.58;;
59976;SDS011;45837;51.076;3.578;2022-11-11T17:01:25;4.97;;;3.30;;
59976;SDS011;45837;51.076;3.578;2022-11-11T17:04:10;6.80;;;3.60;;
59976;SDS011;45837;51.076;3.578;2022-11-11T17:06:58;6.22;;;4.05;;
59976;SDS011;45837;51.076;3.578;2022-11-11T17:09:43;7.72;;;4.43;;
59976;SDS011;45837;51.076;3.578;2022-11-11T17:15:14;7.40;;;4.50;;
59976;SDS011;45837;51.076;3.578;2022-11-11T17:18:00;8.38;;;4.78;;
59976;SDS011;45837;51.076;3.578;2022-11-11T17:20:45;9.57;;;4.60;;
59976;SDS011;45837;51.076;3.578;2022-11-11T17:23:30;6.13;;;3.80;;
59976;SDS011;45837;51.076;3.578;2022-11-11T17:26:15;7.35;;;4.47;;
59976;SDS011;45837;51.076;3.578;2022-11-11T17:29:00;6.90;;;4.30;;
59976;SDS011;45837;51.076;3.578;2022-11-11T17:31:44;7.88;;;4.63;;
59976;SDS011;45837;51.076;3.578;2022-11-11T17:34:29;6.70;;;4.45;;
59976;SDS011;45837;51.076;3.578;2022-11-11T17:39:58;8.18;;;4.63;;
59976;SDS011;45837;51.076;3.578;2022-11-11T17:42:43;6.15;;;4.50;;
59976;SDS011;45837;51.076;3.578;2022-11-11T17:45:27;7.80;;;5.07;;
59976;SDS011;45837;51.076;3.578;2022-11-11T17:48:12;7.25;;;5.00;;
59976;SDS011;45837;51.076;3.578;2022-11-11T17:50:56;6.88;;;4.45;;
59976;SDS011;45837;51.076;3.578;2022-11-11T17:56:25;8.43;;;4.63;;
59976;SDS011;45837;51.076;3.578;2022-11-11T18:01:54;10.07;;;5.72;;
59976;SDS011;45837;51.076;3.578;2022-11-11T18:04:39;8.50;;;5.00;;
59976;SDS011;45837;51.076;3.578;2022-11-11T18:07:24;7.18;;;4.32;;
59976;SDS011;45837;51.076;3.578;2022-11-11T18:10:09;8.68;;;5.35;;
59976;SDS011;45837;51.076;3.578;2022-11-11T18:12:55;7.55;;;4.55;;
59976;SDS011;45837;51.076;3.578;2022-11-11T18:15:40;8.35;;;5.35;;
59976;SDS011;45837;51.076;3.578;2022-11-11T18:18:25;6.90;;;4.70;;
59976;SDS011;45837;51.076;3.578;2022-11-11T18:21:10;7.22;;;4.60;;
59976;SDS011;45837;51.076;3.578;2022-11-11T18:23:54;8.85;;;4.88;;
59976;SDS011;45837;51.076;3.578;2022-11-11T18:26:39;7.63;;;5.10;;
59976;SDS011;45837;51.076;3.578;2022-11-11T18:29:24;7.18;;;4.90;;
59976;SDS011;45837;51.076;3.578;2022-11-11T18:32:08;9.45;;;5.65;;
59976;SDS011;45837;51.076;3.578;2022-11-11T18:34:53;8.02;;;4.90;;
59976;SDS011;45837;51.076;3.578;2022-11-11T18:37:37;11.27;;;5.47;;
59976;SDS011;45837;51.076;3.578;2022-11-11T18:40:21;6.72;;;4.75;;
59976;SDS011;45837;51.076;3.578;2022-11-11T18:43:05;9.00;;;5.28;;
59976;SDS011;45837;51.076;3.578;2022-11-11T18:45:50;7.00;;;4.80;;
59976;SDS011;45837;51.076;3.578;2022-11-11T18:48:35;8.52;;;5.38;;
59976;SDS011;45837;51.076;3.578;2022-11-11T18:51:20;7.70;;;5.35;;
59976;SDS011;45837;51.076;3.578;2022-11-11T18:54:04;6.50;;;4.63;;
59976;SDS011;45837;51.076;3.578;2022-11-11T18:56:49;9.73;;;5.72;;
59976;SDS011;45837;51.076;3.578;2022-11-11T18:59:33;8.70;;;5.00;;
59976;SDS011;45837;51.076;3.578;2022-11-11T19:02:18;8.88;;;5.28;;
59976;SDS011;45837;51.076;3.578;2022-11-11T19:05:02;9.38;;;4.65;;
59976;SDS011;45837;51.076;3.578;2022-11-11T19:07:46;8.10;;;5.10;;
59976;SDS011;45837;51.076;3.578;2022-11-11T19:10:31;7.72;;;5.07;;
59976;SDS011;45837;51.076;3.578;2022-11-11T19:13:15;7.07;;;4.90;;
59976;SDS011;45837;51.076;3.578;2022-11-11T19:18:49;7.90;;;5.15;;
59976;SDS011;45837;51.076;3.578;2022-11-11T19:21:35;6.60;;;4.80;;
59976;SDS011;45837;51.076;3.578;2022-11-11T19:24:21;8.00;;;4.75;;
59976;SDS011;45837;51.076;3.578;2022-11-11T19:27:05;8.00;;;5.05;;
59976;SDS011;45837;51.076;3.578;2022-11-11T19:29:50;6.70;;;4.75;;
59976;SDS011;45837;51.076;3.578;2022-11-11T19:32:34;9.15;;;4.82;;
59976;SDS011;45837;51.076;3.578;2022-11-11T19:38:04;6.90;;;4.87;;
59976;SDS011;45837;51.076;3.578;2022-11-11T19:40:48;7.15;;;4.50;;
59976;SDS011;45837;51.076;3.578;2022-11-11T19:46:18;6.75;;;4.72;;
59976;SDS011;45837;51.076;3.578;2022-11-11T19:49:04;6.47;;;4.40;;
59976;SDS011;45837;51.076;3.578;2022-11-11T19:51:48;7.75;;;5.18;;
59976;SDS011;45837;51.076;3.578;2022-11-11T19:54:33;7.40;;;4.97;;
59976;SDS011;45837;51.076;3.578;2022-11-11T19:57:18;6.55;;;4.25;;
59976;SDS011;45837;51.076;3.578;2022-11-11T20:00:02;6.82;;;4.30;;
59976;SDS011;45837;51.076;3.578;2022-11-11T20:02:48;7.15;;;5.13;;
59976;SDS011;45837;51.076;3.578;2022-11-11T20:05:34;7.82;;;5.00;;
59976;SDS011;45837;51.076;3.578;2022-11-11T20:08:20;6.38;;;4.72;;
59976;SDS011;45837;51.076;3.578;2022-11-11T20:13:50;5.82;;;4.38;;
59976;SDS011;45837;51.076;3.578;2022-11-11T20:16:34;6.75;;;4.93;;
59976;SDS011;45837;51.076;3.578;2022-11-11T20:19:19;7.20;;;4.93;;
59976;SDS011;45837;51.076;3.578;2022-11-11T20:22:03;7.07;;;4.47;;
59976;SDS011;45837;51.076;3.578;2022-11-11T20:24:48;6.20;;;4.53;;
59976;SDS011;45837;51.076;3.578;2022-11-11T20:27:33;5.50;;;4.28;;
59976;SDS011;45837;51.076;3.578;2022-11-11T20:30:18;7.85;;;5.03;;
59976;SDS011;45837;51.076;3.578;2022-11-11T20:33:02;7.78;;;4.97;;
59976;SDS011;45837;51.076;3.578;2022-11-11T20:35:47;6.82;;;4.70;;
59976;SDS011;45837;51.076;3.578;2022-11-11T20:38:31;6.65;;;4.38;;
59976;SDS011;45837;51.076;3.578;2022-11-11T20:41:17;6.03;;;4.20;;
59976;SDS011;45837;51.076;3.578;2022-11-11T20:44:02;6.18;;;4.32;;
59976;SDS011;45837;51.076;3.578;2022-11-11T20:49:31;6.68;;;4.47;;
59976;SDS011;45837;51.076;3.578;2022-11-11T20:52:16;7.30;;;4.85;;
59976;SDS011;45837;51.076;3.578;2022-11-11T20:55:01;7.13;;;4.25;;
59976;SDS011;45837;51.076;3.578;2022-11-11T21:00:30;5.38;;;4.38;;
59976;SDS011;45837;51.076;3.578;2022-11-11T21:06:00;6.97;;;4.90;;